Arden, New York
Current Conditions -  °F | °C
As of 10:45 AM on Monday 26 Jan 2015 (Local Time) from KSWF Reporting Station
Light Snow Light Snow  
Wind Chill:   Ceiling: 2500
Heat Index: 16°   Visibility: 4mi
Dew Point:   Wind: 12mph
Humidity: 73%   Direction: 50°NE
Pressure: 30.04"   Gusts: NA
Location:  41.27°N, 74.15°W
Report Text: KSWF 261545Z 05010KT 4SM -SN BR OVC025 M09/M13 A3004
Loading
Personal Weather Stations






























Interactive Weather Map New forecast layout! Learn more

10-Day Weather Forecast

Advertisements
Track Severe Weather on mobile